createdAt,value
2022-10-30T00:01:05.339Z,100671.44
2022-10-30T00:03:32.122Z,100679.44
2022-10-30T00:05:58.898Z,100671.69
2022-10-30T00:08:25.941Z,100672.63
2022-10-30T00:10:53.283Z,100676.03
2022-10-30T00:13:21.468Z,100685.78
2022-10-30T00:15:53.796Z,100692.84
2022-10-30T00:18:22.100Z,100692.03
2022-10-30T00:20:49.373Z,100701.75
2022-10-30T00:23:16.311Z,100690.91
2022-10-30T00:25:43.079Z,100717.75
2022-10-30T00:28:09.892Z,100726.50
2022-10-30T00:30:36.912Z,100716.06
2022-10-30T00:33:04.872Z,100710.81
2022-10-30T00:35:32.091Z,100710.03
2022-10-30T00:38:00.910Z,100707.47
2022-10-30T00:40:28.685Z,100711.13
2022-10-30T00:42:56.714Z,100717.28
2022-10-30T00:45:23.683Z,100724.28
2022-10-30T00:47:59.932Z,100717.34
2022-10-30T00:50:37.709Z,100722.75
2022-10-30T00:53:12.056Z,100728.97
2022-10-30T00:56:03.914Z,100713.28
2022-10-30T00:58:38.316Z,100732.72
2022-10-30T01:01:09.855Z,100703.53
2022-10-30T01:03:40.490Z,100727.06
2022-10-30T01:06:10.874Z,100733.16
2022-10-30T01:08:38.726Z,100746.31
2022-10-30T01:11:07.621Z,100749.06
2022-10-30T01:13:36.741Z,100763.31
2022-10-30T01:16:09.578Z,100766.09
2022-10-30T01:18:39.351Z,100776.72
2022-10-30T01:21:15.953Z,100789.16
2022-10-30T01:24:07.053Z,100792.72
2022-10-30T01:26:41.737Z,100795.44
2022-10-30T01:29:44.970Z,100778.19
2022-10-30T01:32:30.721Z,100779.06
2022-10-30T01:35:39.991Z,100792.09
2022-10-30T01:38:17.082Z,100799.22
2022-10-30T01:40:47.347Z,100795.69
2022-10-30T01:43:15.788Z,100804.53
2022-10-30T01:46:01.225Z,100810.81
2022-10-30T01:48:34.009Z,100816.13
2022-10-30T01:51:40.063Z,100828.53
2022-10-30T01:54:20.805Z,100832.94
2022-10-30T01:57:11.708Z,100759.72
2022-10-30T01:59:42.803Z,100830.38
2022-10-30T02:02:10.820Z,100844.50
2022-10-30T02:04:38.697Z,100847.22
2022-10-30T02:07:06.194Z,100851.66
2022-10-30T02:09:39.883Z,100864.03
2022-10-30T02:12:08.276Z,100861.44
2022-10-30T02:14:43.513Z,100872.13
2022-10-30T02:17:11.753Z,100895.91
2022-10-30T02:19:38.836Z,100881.94
2022-10-30T02:22:05.854Z,100890.75
2022-10-30T02:24:32.987Z,100883.78
2022-10-30T02:27:00.229Z,100886.47
2022-10-30T02:29:27.023Z,100891.81
2022-10-30T02:31:53.981Z,100885.66
2022-10-30T02:34:21.007Z,100898.06
2022-10-30T02:36:47.759Z,100897.19
2022-10-30T02:39:14.626Z,100903.34
2022-10-30T02:41:41.415Z,100901.59
2022-10-30T02:44:08.322Z,100898.06
2022-10-30T02:46:35.862Z,100902.47
2022-10-30T02:49:02.957Z,100908.66
2022-10-30T02:51:32.019Z,100890.69
2022-10-30T02:54:00.088Z,100915.72
2022-10-30T02:56:27.494Z,100931.47
2022-10-30T02:58:57.555Z,100942.88
2022-10-30T03:01:24.477Z,100942.97
2022-10-30T03:03:54.911Z,100938.59
2022-10-30T03:06:23.244Z,100952.56
2022-10-30T03:08:51.105Z,100949.94
2022-10-30T03:11:19.996Z,100951.69
2022-10-30T03:13:48.120Z,100953.50
2022-10-30T03:16:20.641Z,100964.06
2022-10-30T03:18:47.729Z,100964.06
2022-10-30T03:21:17.629Z,100976.34
2022-10-30T03:23:44.802Z,100974.63
2022-10-30T03:26:12.014Z,100951.28
2022-10-30T03:29:01.579Z,100952.81
2022-10-30T03:31:31.041Z,100960.53
2022-10-30T03:34:09.283Z,100964.94
2022-10-30T03:36:36.092Z,100950.34
2022-10-30T03:39:03.384Z,100979.94
2022-10-30T03:41:31.983Z,100974.66
2022-10-30T03:43:58.823Z,100974.72
2022-10-30T03:46:25.564Z,100979.97
2022-10-30T03:48:55.863Z,100986.25
2022-10-30T03:51:22.643Z,100981.09
2022-10-30T03:53:50.374Z,100995.03
2022-10-30T03:56:17.223Z,100961.22
2022-10-30T03:58:47.978Z,100960.50
2022-10-30T04:01:19.562Z,100999.47
2022-10-30T04:03:50.733Z,101011.84
2022-10-30T04:06:18.005Z,101010.09
2022-10-30T04:08:44.771Z,101021.56
2022-10-30T04:11:11.682Z,101021.59
2022-10-30T04:13:39.418Z,101019.94
2022-10-30T04:16:06.862Z,101013.09
2022-10-30T04:18:34.266Z,101041.94
2022-10-30T04:21:01.359Z,101020.25
2022-10-30T04:23:28.323Z,101038.41
2022-10-30T04:25:55.832Z,101055.16
2022-10-30T04:28:23.131Z,101042.03
2022-10-30T04:30:49.941Z,101052.56
2022-10-30T04:33:17.661Z,101028.25
2022-10-30T04:35:44.587Z,101056.13
2022-10-30T04:38:16.261Z,101057.91
2022-10-30T04:40:44.530Z,101033.56
2022-10-30T04:43:13.920Z,101060.50
2022-10-30T04:45:41.897Z,101059.66
2022-10-30T04:48:17.604Z,101067.53
2022-10-30T04:50:45.045Z,101071.09
2022-10-30T04:53:19.425Z,101064.91
2022-10-30T04:56:13.187Z,101072.81
2022-10-30T04:59:00.674Z,101076.31
2022-10-30T05:01:47.596Z,101082.47
2022-10-30T05:04:34.407Z,101078.97
2022-10-30T05:07:21.799Z,101082.53
2022-10-30T05:10:08.500Z,101085.16
2022-10-30T05:12:55.235Z,101079.09
2022-10-30T05:15:42.144Z,101092.13
2022-10-30T05:18:28.864Z,101087.75
2022-10-30T05:21:15.578Z,101067.00
2022-10-30T05:24:02.343Z,101094.72
2022-10-30T05:26:57.015Z,101102.63
2022-10-30T05:29:43.773Z,101099.06
2022-10-30T05:32:30.586Z,101101.72
2022-10-30T05:35:18.411Z,101103.47
2022-10-30T05:38:05.439Z,101099.06
2022-10-30T05:40:53.995Z,101101.66
2022-10-30T05:43:40.730Z,101090.28
2022-10-30T05:46:27.701Z,101089.25
2022-10-30T05:49:16.410Z,101093.66
2022-10-30T05:52:03.119Z,101083.22
2022-10-30T05:54:50.511Z,101107.66
2022-10-30T05:58:00.500Z,101112.00
2022-10-30T06:00:49.269Z,101107.53
2022-10-30T06:03:44.227Z,101108.41
2022-10-30T06:06:32.203Z,101049.50
2022-10-30T06:09:18.961Z,101105.63
2022-10-30T06:12:24.215Z,101115.28
2022-10-30T06:15:21.748Z,101118.75
2022-10-30T06:18:08.711Z,101126.63
2022-10-30T06:21:00.387Z,101126.59
2022-10-30T06:24:15.942Z,101128.25
2022-10-30T06:27:32.040Z,101130.81
2022-10-30T06:30:18.887Z,101136.03
2022-10-30T06:33:05.601Z,101140.41
2022-10-30T06:35:54.118Z,101141.22
2022-10-30T06:38:40.846Z,101135.06
2022-10-30T06:41:30.476Z,101129.66
2022-10-30T06:44:43.296Z,101140.13
2022-10-30T06:47:30.012Z,101136.56
2022-10-30T06:50:17.570Z,101142.69
2022-10-30T06:53:04.883Z,101140.84
2022-10-30T06:55:57.796Z,101138.16
2022-10-30T06:59:20.714Z,101146.88
2022-10-30T07:02:13.908Z,101161.84
2022-10-30T07:05:06.954Z,101152.06
2022-10-30T07:07:53.722Z,101139.72
2022-10-30T07:10:40.467Z,101141.41
2022-10-30T07:13:45.838Z,101142.25
2022-10-30T07:17:04.807Z,101144.78
2022-10-30T07:19:52.450Z,101139.50
2022-10-30T07:22:39.283Z,101135.00
2022-10-30T07:25:27.835Z,101134.03
2022-10-30T07:28:39.069Z,101122.59
2022-10-30T07:31:57.547Z,101099.84
2022-10-30T07:34:51.949Z,101118.94
2022-10-30T07:37:57.454Z,101124.16
2022-10-30T07:40:57.326Z,101150.50
2022-10-30T07:44:04.871Z,101148.69
2022-10-30T07:47:03.979Z,101157.47
2022-10-30T07:50:05.056Z,101148.72
2022-10-30T07:52:53.477Z,101160.84
2022-10-30T07:55:44.509Z,101100.09
2022-10-30T07:58:34.260Z,101167.72
2022-10-30T08:01:39.660Z,101147.56
2022-10-30T08:04:52.855Z,101140.66
2022-10-30T08:07:55.374Z,101164.91
2022-10-30T08:10:42.380Z,101107.81
2022-10-30T08:13:29.110Z,101160.38
2022-10-30T08:16:15.835Z,101158.56
2022-10-30T08:19:02.663Z,101163.78
2022-10-30T08:21:49.435Z,101160.22
2022-10-30T08:24:38.916Z,101157.50
2022-10-30T08:27:25.663Z,101138.44
2022-10-30T08:30:12.378Z,101161.84
2022-10-30T08:32:59.336Z,101174.97
2022-10-30T08:36:12.204Z,101174.91
2022-10-30T08:38:58.928Z,101164.28
2022-10-30T08:42:00.980Z,101164.19
2022-10-30T08:44:55.511Z,101171.09
2022-10-30T08:48:04.773Z,101168.47
2022-10-30T08:50:56.458Z,101176.28
2022-10-30T08:53:47.439Z,101194.66
2022-10-30T08:56:35.707Z,101192.91
2022-10-30T08:59:28.810Z,101192.84
2022-10-30T09:02:18.573Z,101195.44
2022-10-30T09:05:29.312Z,101193.66
2022-10-30T09:08:34.347Z,101190.09
2022-10-30T09:11:30.886Z,101205.97
2022-10-30T09:14:18.408Z,101198.94
2022-10-30T09:17:05.275Z,101205.00
2022-10-30T09:19:52.865Z,101228.69
2022-10-30T09:22:49.930Z,101228.66
2022-10-30T09:25:37.685Z,101203.53
2022-10-30T09:28:34.426Z,101233.84
2022-10-30T09:31:39.710Z,101226.75
2022-10-30T09:34:29.450Z,101231.16
2022-10-30T09:37:20.735Z,101223.13
2022-10-30T09:40:11.171Z,101238.84
2022-10-30T09:43:06.839Z,101231.78
2022-10-30T09:46:19.520Z,101234.28
2022-10-30T09:49:12.043Z,101243.94
2022-10-30T09:52:18.733Z,101247.38
2022-10-30T09:55:12.965Z,101251.72
2022-10-30T09:58:05.619Z,101248.97
2022-10-30T10:01:07.405Z,101245.44
2022-10-30T10:03:57.381Z,101257.59
2022-10-30T10:07:17.830Z,101249.56
2022-10-30T10:10:16.963Z,101256.63
2022-10-30T10:13:11.862Z,101258.28
2022-10-30T10:16:11.770Z,101267.06
2022-10-30T10:19:05.494Z,101266.13
2022-10-30T10:21:55.136Z,101271.31
2022-10-30T10:24:46.487Z,101265.09
2022-10-30T10:27:35.944Z,101268.00
2022-10-30T10:30:35.670Z,101280.09
2022-10-30T10:33:37.595Z,101282.63
2022-10-30T10:36:43.838Z,101283.47
2022-10-30T10:40:15.188Z,101286.91
2022-10-30T10:43:20.218Z,101285.97
2022-10-30T10:46:19.813Z,101248.56
2022-10-30T10:49:44.151Z,101272.00
2022-10-30T10:52:37.619Z,101276.00
2022-10-30T10:55:36.469Z,101270.66
2022-10-30T10:58:52.317Z,101261.78
2022-10-30T11:01:48.146Z,101265.16
2022-10-30T11:04:44.707Z,101273.94
2022-10-30T11:07:49.622Z,101263.53
2022-10-30T11:10:39.160Z,101279.06
2022-10-30T11:13:25.971Z,101271.38
2022-10-30T11:16:24.815Z,101285.16
2022-10-30T11:19:15.690Z,101201.97
2022-10-30T11:22:07.282Z,101274.34
2022-10-30T11:24:55.674Z,101259.56
2022-10-30T11:27:45.194Z,101275.06
2022-10-30T11:30:41.761Z,101279.38
2022-10-30T11:33:42.455Z,101285.50
2022-10-30T11:36:29.941Z,101223.06
2022-10-30T11:39:30.168Z,101281.75
2022-10-30T11:42:33.830Z,101290.47
2022-10-30T11:45:21.051Z,101283.28
2022-10-30T11:48:13.392Z,101287.63
2022-10-30T11:51:07.872Z,101284.88
2022-10-30T11:54:02.332Z,101239.03
2022-10-30T11:56:50.809Z,101293.47
2022-10-30T11:59:40.463Z,101298.66
2022-10-30T12:02:48.362Z,101287.94
2022-10-30T12:05:50.263Z,101286.97
2022-10-30T12:08:20.344Z,101295.75
2022-10-30T12:10:53.159Z,101291.22
2022-10-30T12:13:22.929Z,101285.03
2022-10-30T12:16:02.981Z,101293.66
2022-10-30T12:18:30.463Z,101296.31
2022-10-30T12:20:58.928Z,101304.06
2022-10-30T12:23:28.463Z,101290.75
2022-10-30T12:26:01.025Z,101267.09
2022-10-30T12:28:32.540Z,101282.63
2022-10-30T12:31:23.547Z,101277.22
2022-10-30T12:34:02.721Z,101281.59
2022-10-30T12:36:36.175Z,101277.94
2022-10-30T12:39:09.442Z,101266.78
2022-10-30T12:42:14.861Z,101293.75
2022-10-30T12:44:46.834Z,101292.84
2022-10-30T12:47:18.854Z,101299.81
2022-10-30T12:50:01.620Z,101269.44
2022-10-30T12:52:47.251Z,101294.41
2022-10-30T12:55:23.957Z,101304.03
2022-10-30T12:58:09.718Z,101298.72
2022-10-30T13:01:03.749Z,101300.41
2022-10-30T13:03:37.340Z,101290.81
2022-10-30T13:06:22.468Z,101307.38
2022-10-30T13:09:26.613Z,101319.69
2022-10-30T13:12:10.582Z,101309.03
2022-10-30T13:14:44.922Z,101226.06
2022-10-30T13:17:12.728Z,101322.22
2022-10-30T13:19:45.286Z,101323.06
2022-10-30T13:22:20.401Z,101340.75
2022-10-30T13:25:07.237Z,101336.28
2022-10-30T13:27:42.029Z,101343.41
2022-10-30T13:30:15.608Z,101339.81
2022-10-30T13:33:01.760Z,101351.31
2022-10-30T13:35:55.178Z,101355.69
2022-10-30T13:38:37.123Z,101360.97
2022-10-30T13:41:22.014Z,101355.72
2022-10-30T13:44:10.125Z,101365.41
2022-10-30T13:47:25.138Z,101359.25
2022-10-30T13:50:49.567Z,101363.69
2022-10-30T13:53:44.441Z,101372.53
2022-10-30T13:56:35.250Z,101365.41
2022-10-30T13:59:58.893Z,101364.56
2022-10-30T14:02:51.805Z,101351.31
2022-10-30T14:05:50.353Z,101354.91
2022-10-30T14:08:56.550Z,101361.03
2022-10-30T14:11:43.262Z,101361.97
2022-10-30T14:14:51.851Z,101377.94
2022-10-30T14:17:38.543Z,101393.00
2022-10-30T14:20:25.207Z,101388.69
2022-10-30T14:23:47.034Z,101381.63
2022-10-30T14:26:34.459Z,101387.91
2022-10-30T14:29:50.195Z,101379.19
2022-10-30T14:32:39.527Z,101381.00
2022-10-30T14:35:54.738Z,101380.22
2022-10-30T14:38:44.324Z,101331.59
2022-10-30T14:42:17.336Z,101371.50
2022-10-30T14:45:06.825Z,101382.22
2022-10-30T14:48:05.528Z,101374.38
2022-10-30T14:51:04.096Z,101379.72
2022-10-30T14:54:06.091Z,101381.63
2022-10-30T14:57:09.470Z,101394.19
2022-10-30T14:59:56.163Z,101394.25
2022-10-30T15:02:57.318Z,101357.03
2022-10-30T15:05:44.115Z,101390.00
2022-10-30T15:08:38.896Z,101387.50
2022-10-30T15:11:59.520Z,101386.72
2022-10-30T15:14:56.203Z,101378.88
2022-10-30T15:18:01.167Z,101377.31
2022-10-30T15:20:53.922Z,101272.72
2022-10-30T15:23:50.915Z,101389.94
2022-10-30T15:26:42.872Z,101388.38
2022-10-30T15:29:46.253Z,101386.97
2022-10-30T15:32:38.326Z,101384.59
2022-10-30T15:35:35.890Z,101384.00
2022-10-30T15:38:30.452Z,101379.84
2022-10-30T15:41:19.439Z,101393.03
2022-10-30T15:44:06.336Z,101394.06
2022-10-30T15:46:53.131Z,101362.06
2022-10-30T15:50:01.736Z,101396.94
2022-10-30T15:52:52.494Z,101403.22
2022-10-30T15:55:44.885Z,101399.81
2022-10-30T15:58:35.969Z,101401.78
2022-10-30T16:01:23.122Z,101412.38
2022-10-30T16:04:14.031Z,101403.69
2022-10-30T16:07:02.975Z,101402.06
2022-10-30T16:09:29.964Z,101413.63
2022-10-30T16:11:59.865Z,101381.59
2022-10-30T16:14:29.875Z,101389.53
2022-10-30T16:17:00.456Z,101408.72
2022-10-30T16:19:30.508Z,101420.31
2022-10-30T16:21:58.999Z,101388.34
2022-10-30T16:24:31.415Z,101417.06
2022-10-30T16:27:19.582Z,101438.41
2022-10-30T16:29:49.192Z,101353.25
2022-10-30T16:32:38.951Z,101421.25
2022-10-30T16:35:27.190Z,101429.13
2022-10-30T16:38:15.449Z,101431.00
2022-10-30T16:41:02.441Z,101430.19
2022-10-30T16:43:52.079Z,101434.69
2022-10-30T16:46:55.021Z,101434.00
2022-10-30T16:49:53.672Z,101434.97
2022-10-30T16:52:47.163Z,101439.50
2022-10-30T16:55:42.539Z,101435.09
2022-10-30T16:58:32.659Z,101441.41
2022-10-30T17:01:26.144Z,101437.91
2022-10-30T17:07:05.948Z,101438.03
2022-10-30T17:09:57.585Z,101430.22
2022-10-30T17:12:49.034Z,101440.84
2022-10-30T17:15:38.572Z,101446.19
2022-10-30T17:18:36.395Z,101448.03
2022-10-30T17:21:39.987Z,101439.34
2022-10-30T17:24:40.062Z,101434.97
2022-10-30T17:27:46.742Z,101430.66
2022-10-30T17:30:54.257Z,101444.88
2022-10-30T17:33:57.376Z,101442.31
2022-10-30T17:36:44.093Z,101444.13
2022-10-30T17:39:30.950Z,101459.22
2022-10-30T17:42:18.191Z,101459.31
2022-10-30T17:45:05.195Z,101454.13
2022-10-30T17:47:51.878Z,101463.06
2022-10-30T17:50:38.553Z,101470.97
2022-10-30T17:53:25.265Z,101476.31
2022-10-30T17:56:24.047Z,101479.91
2022-10-30T17:59:10.751Z,101483.53
2022-10-30T18:01:57.515Z,101399.25
2022-10-30T18:04:44.392Z,101487.22
2022-10-30T18:07:32.616Z,101482.94
2022-10-30T18:10:19.338Z,101482.13
2022-10-30T18:13:06.114Z,101407.53
2022-10-30T18:15:58.135Z,101485.84
2022-10-30T18:18:44.963Z,101491.25
2022-10-30T18:21:33.294Z,101488.69
2022-10-30T18:24:19.991Z,101493.16
2022-10-30T18:27:07.007Z,101510.78
2022-10-30T18:29:53.754Z,101419.72
2022-10-30T18:32:40.446Z,101519.78
2022-10-30T18:35:35.949Z,101449.41
2022-10-30T18:38:24.165Z,101508.50
2022-10-30T18:41:11.283Z,101493.91
2022-10-30T18:43:57.957Z,101527.16
2022-10-30T18:46:44.859Z,101422.06
2022-10-30T18:49:32.174Z,101519.63
2022-10-30T18:52:18.889Z,101542.38
2022-10-30T18:55:05.574Z,101547.75
2022-10-30T18:57:52.267Z,101551.31
2022-10-30T19:01:09.818Z,101551.38
2022-10-30T19:03:47.863Z,101554.97
2022-10-30T19:06:37.427Z,101555.91
2022-10-30T19:09:24.281Z,101564.75
2022-10-30T19:12:11.041Z,101529.78
2022-10-30T19:14:57.792Z,101543.84
2022-10-30T19:17:44.486Z,101550.03
2022-10-30T19:20:43.988Z,101547.50
2022-10-30T19:23:44.211Z,101557.25
2022-10-30T19:26:31.735Z,101559.06
2022-10-30T19:29:18.547Z,101551.28
2022-10-30T19:32:05.237Z,101552.19
2022-10-30T19:34:51.936Z,101554.03
2022-10-30T19:37:38.622Z,101559.38
2022-10-30T19:40:37.556Z,101548.88
2022-10-30T19:43:25.051Z,101549.81
2022-10-30T19:46:15.892Z,101558.63
2022-10-30T19:49:02.763Z,101555.16
2022-10-30T19:51:49.530Z,101547.44
2022-10-30T19:54:36.306Z,101518.81
2022-10-30T19:57:23.080Z,101556.22
2022-10-30T20:00:09.944Z,101548.38
2022-10-30T20:02:57.806Z,101556.34
2022-10-30T20:05:47.579Z,101550.22
2022-10-30T20:08:43.040Z,101541.50
2022-10-30T20:11:29.733Z,101547.75
2022-10-30T20:14:16.408Z,101546.94
2022-10-30T20:17:03.105Z,101544.38
2022-10-30T20:19:51.246Z,101547.03
2022-10-30T20:22:37.942Z,101549.75
2022-10-30T20:25:25.030Z,101565.47
2022-10-30T20:28:21.168Z,101533.28
2022-10-30T20:31:08.266Z,101564.63
2022-10-30T20:33:55.217Z,101574.28
2022-10-30T20:36:41.914Z,101571.69
2022-10-30T20:39:31.881Z,101569.06
2022-10-30T20:42:18.642Z,101556.78
2022-10-30T20:45:05.379Z,101547.28
2022-10-30T20:47:52.101Z,101556.81
2022-10-30T20:50:40.072Z,101556.84
2022-10-30T20:53:27.465Z,101554.22
2022-10-30T20:56:15.506Z,101542.00
2022-10-30T20:59:02.578Z,101543.75
2022-10-30T21:01:49.517Z,101549.94
2022-10-30T21:04:36.318Z,101540.38
2022-10-30T21:07:23.034Z,101544.72
2022-10-30T21:10:09.743Z,101541.22
2022-10-30T21:12:58.015Z,101531.66
2022-10-30T21:15:46.583Z,101539.56
2022-10-30T21:18:33.301Z,101540.44
2022-10-30T21:21:25.662Z,101542.22
2022-10-30T21:24:16.344Z,101542.25
2022-10-30T21:27:03.743Z,101543.13
2022-10-30T21:29:50.419Z,101534.41
2022-10-30T21:32:37.123Z,101537.06
2022-10-30T21:35:24.206Z,101538.84
2022-10-30T21:38:11.005Z,101538.00
2022-10-30T21:40:57.759Z,101550.31
2022-10-30T21:43:44.590Z,101540.69
2022-10-30T21:46:32.527Z,101541.59
2022-10-30T21:49:24.565Z,101544.25
2022-10-30T21:52:11.231Z,101545.19
2022-10-30T21:54:58.039Z,101522.59
2022-10-30T21:57:44.730Z,101536.56
2022-10-30T22:00:32.135Z,101556.63
2022-10-30T22:03:18.901Z,101542.72
2022-10-30T22:06:05.719Z,101562.81
2022-10-30T22:08:52.471Z,101563.72
2022-10-30T22:11:41.069Z,101568.97
2022-10-30T22:14:27.786Z,101578.66
2022-10-30T22:17:14.517Z,101572.53
2022-10-30T22:20:01.228Z,101572.56
2022-10-30T22:22:50.751Z,101560.34
2022-10-30T22:25:37.463Z,101569.09
2022-10-30T22:28:24.396Z,101564.75
2022-10-30T22:31:11.197Z,101565.66
2022-10-30T22:33:57.967Z,101560.44
2022-10-30T22:36:50.018Z,101560.41
2022-10-30T22:39:36.725Z,101558.69
2022-10-30T22:42:23.507Z,101571.88
2022-10-30T22:45:10.353Z,101563.09
2022-10-30T22:47:57.363Z,101565.75
2022-10-30T22:50:44.298Z,101565.75
2022-10-30T22:53:31.000Z,101569.28
2022-10-30T22:56:17.715Z,101551.88
2022-10-30T22:59:09.510Z,101532.72
2022-10-30T23:01:58.446Z,101548.41
2022-10-30T23:04:45.174Z,101562.38
2022-10-30T23:07:31.913Z,101560.63
2022-10-30T23:10:18.613Z,101563.28
2022-10-30T23:13:05.376Z,101560.66
2022-10-30T23:15:52.081Z,101565.09
2022-10-30T23:18:39.173Z,101569.47
2022-10-30T23:21:28.631Z,101564.22
2022-10-30T23:24:15.928Z,101580.00
2022-10-30T23:27:02.644Z,101575.63
2022-10-30T23:29:49.442Z,101567.75
2022-10-30T23:32:36.193Z,101567.78
2022-10-30T23:35:22.947Z,101569.53
2022-10-30T23:38:09.651Z,101564.28
2022-10-30T23:40:56.370Z,101569.56
2022-10-30T23:43:43.091Z,101564.31
